createdAt,value
2023-02-22T00:00:14.608Z,0
2023-02-22T00:01:14.495Z,0
2023-02-22T00:02:14.496Z,0
2023-02-22T00:03:14.544Z,0
2023-02-22T00:04:14.317Z,0
2023-02-22T00:05:14.656Z,0
2023-02-22T00:06:14.262Z,0
2023-02-22T00:07:14.318Z,0
2023-02-22T00:08:14.221Z,0
2023-02-22T00:09:13.735Z,0
2023-02-22T00:10:13.999Z,0
2023-02-22T00:11:14.680Z,0
2023-02-22T00:12:14.430Z,0
2023-02-22T00:13:14.184Z,0
2023-02-22T00:14:13.903Z,0
2023-02-22T00:15:14.136Z,0
2023-02-22T00:16:14.097Z,0
2023-02-22T00:17:14.110Z,0
2023-02-22T00:18:13.849Z,0
2023-02-22T00:19:14.069Z,0
2023-02-22T00:20:13.817Z,0
2023-02-22T00:21:14.517Z,0
2023-02-22T00:22:14.057Z,0
2023-02-22T00:23:14.303Z,0
2023-02-22T00:24:14.003Z,0
2023-02-22T00:25:13.991Z,0
2023-02-22T00:26:13.987Z,0
2023-02-22T00:27:14.227Z,0
2023-02-22T00:28:13.942Z,0
2023-02-22T00:29:14.184Z,0
2023-02-22T00:30:14.302Z,0
2023-02-22T00:31:13.994Z,0
2023-02-22T00:32:14.737Z,0
2023-02-22T00:33:14.122Z,0
2023-02-22T00:34:13.614Z,0
2023-02-22T00:35:13.844Z,0
2023-02-22T00:36:13.822Z,0
2023-02-22T00:37:14.181Z,0
2023-02-22T00:38:13.809Z,0
2023-02-22T00:39:13.526Z,0
2023-02-22T00:40:13.508Z,0
2023-02-22T00:41:13.778Z,0
2023-02-22T00:42:13.734Z,0
2023-02-22T00:43:13.984Z,0
2023-02-22T00:44:13.970Z,0
2023-02-22T00:45:13.949Z,0
2023-02-22T00:46:14.276Z,0
2023-02-22T00:47:13.925Z,0
2023-02-22T00:48:13.919Z,0
2023-02-22T00:49:13.944Z,0
2023-02-22T00:50:13.618Z,0
2023-02-22T00:51:14.128Z,0
2023-02-22T00:52:13.590Z,0
2023-02-22T00:53:13.928Z,0
2023-02-22T00:54:13.814Z,0
2023-02-22T00:55:13.815Z,0
2023-02-22T00:56:13.526Z,0
2023-02-22T00:57:13.534Z,0
2023-02-22T00:58:13.560Z,0
2023-02-22T00:59:13.507Z,0
2023-02-22T01:00:13.464Z,0
2023-02-22T01:01:13.761Z,0
2023-02-22T01:02:14.034Z,0
2023-02-22T01:03:13.905Z,0
2023-02-22T01:04:13.260Z,0
2023-02-22T01:05:13.326Z,0
2023-02-22T01:06:13.396Z,0
2023-02-22T01:07:13.620Z,0
2023-02-22T01:08:13.404Z,0
2023-02-22T01:09:13.819Z,0
2023-02-22T01:10:13.576Z,0
2023-02-22T01:11:13.400Z,0
2023-02-22T01:12:13.588Z,0
2023-02-22T01:13:14.042Z,0
2023-02-22T01:14:13.540Z,0
2023-02-22T01:15:13.269Z,0
2023-02-22T01:16:13.628Z,0
2023-02-22T01:17:12.977Z,0
2023-02-22T01:18:13.275Z,0
2023-02-22T01:19:13.228Z,0
2023-02-22T01:20:13.456Z,0
2023-02-22T01:21:12.946Z,0
2023-02-22T01:22:12.916Z,0
2023-02-22T01:23:13.391Z,0
2023-02-22T01:24:13.369Z,0
2023-02-22T01:25:13.468Z,0
2023-02-22T01:26:13.224Z,0
2023-02-22T01:27:12.826Z,0
2023-02-22T01:28:13.362Z,0
2023-02-22T01:29:13.306Z,0
2023-02-22T01:30:13.731Z,0
2023-02-22T01:31:13.539Z,0
2023-02-22T01:32:13.543Z,0
2023-02-22T01:33:44.824Z,0
2023-02-22T01:34:13.249Z,0
2023-02-22T01:35:12.886Z,0
2023-02-22T01:36:12.973Z,0
2023-02-22T01:37:12.944Z,0
2023-02-22T01:38:12.963Z,0
2023-02-22T01:39:13.160Z,0
2023-02-22T01:40:13.155Z,0
2023-02-22T01:41:13.233Z,0
2023-02-22T01:42:13.209Z,0
2023-02-22T01:43:12.597Z,0
2023-02-22T01:44:13.081Z,0
2023-02-22T01:45:13.075Z,0
2023-02-22T01:46:13.068Z,0
2023-02-22T01:47:13.061Z,0
2023-02-22T01:48:12.771Z,0
2023-02-22T01:49:12.785Z,0
2023-02-22T01:50:13.019Z,0
2023-02-22T01:51:13.216Z,0
2023-02-22T01:52:12.479Z,0
2023-02-22T01:53:12.958Z,0
2023-02-22T01:54:12.472Z,0
2023-02-22T01:55:12.681Z,0
2023-02-22T01:56:12.664Z,0
2023-02-22T01:57:13.014Z,0
2023-02-22T01:58:12.130Z,0
2023-02-22T01:59:12.650Z,0
2023-02-22T02:00:12.860Z,0
2023-02-22T02:01:12.596Z,0
2023-02-22T02:02:12.562Z,0
2023-02-22T02:03:12.550Z,0
2023-02-22T02:04:12.870Z,0
2023-02-22T02:05:12.900Z,0
2023-02-22T02:06:12.539Z,0
2023-02-22T02:07:12.788Z,0
2023-02-22T02:08:12.227Z,0
2023-02-22T02:09:12.769Z,0
2023-02-22T02:10:12.204Z,0
2023-02-22T02:11:15.716Z,0
2023-02-22T02:12:12.175Z,0
2023-02-22T02:13:12.778Z,0
2023-02-22T02:14:12.149Z,0
2023-02-22T02:15:12.126Z,0
2023-02-22T02:16:12.117Z,0
2023-02-22T02:17:12.583Z,0
2023-02-22T02:18:12.620Z,0
2023-02-22T02:19:12.062Z,0
2023-02-22T02:20:12.566Z,0
2023-02-22T02:21:12.296Z,0
2023-02-22T02:22:12.547Z,0
2023-02-22T02:23:12.522Z,0
2023-02-22T02:24:12.575Z,0
2023-02-22T02:25:12.267Z,0
2023-02-22T02:26:12.488Z,0
2023-02-22T02:27:11.954Z,0
2023-02-22T02:28:12.455Z,0
2023-02-22T02:29:12.532Z,0
2023-02-22T02:30:12.710Z,0
2023-02-22T02:31:12.157Z,0
2023-02-22T02:32:12.243Z,0
2023-02-22T02:33:12.120Z,0
2023-02-22T02:34:11.873Z,0
2023-02-22T02:35:11.848Z,0
2023-02-22T02:36:11.835Z,0
2023-02-22T02:37:11.810Z,0
2023-02-22T02:38:12.067Z,0
2023-02-22T02:39:12.298Z,0
2023-02-22T02:40:12.561Z,0
2023-02-22T02:41:11.766Z,0
2023-02-22T02:42:12.247Z,0
2023-02-22T02:43:12.247Z,0
2023-02-22T02:44:11.972Z,0
2023-02-22T02:45:12.301Z,0
2023-02-22T02:46:12.209Z,0
2023-02-22T02:47:11.595Z,0
2023-02-22T02:48:12.011Z,0
2023-02-22T02:49:11.657Z,0
2023-02-22T02:50:12.159Z,0
2023-02-22T02:51:11.622Z,0
2023-02-22T02:52:12.099Z,0
2023-02-22T02:53:12.084Z,0
2023-02-22T02:54:11.834Z,0
2023-02-22T02:55:11.829Z,0
2023-02-22T02:56:12.048Z,0
2023-02-22T02:57:11.546Z,0
2023-02-22T02:58:12.027Z,0
2023-02-22T02:59:12.009Z,0
2023-02-22T03:00:11.749Z,0
2023-02-22T03:01:12.077Z,0
2023-02-22T03:02:11.979Z,0
2023-02-22T03:03:11.494Z,0
2023-02-22T03:04:11.925Z,0
2023-02-22T03:05:11.918Z,0
2023-02-22T03:06:12.357Z,0
2023-02-22T03:07:12.808Z,0
2023-02-22T03:08:12.340Z,0
2023-02-22T03:09:12.601Z,0
2023-02-22T03:10:12.386Z,0
2023-02-22T03:11:12.275Z,0
2023-02-22T03:12:12.292Z,0
2023-02-22T03:13:12.523Z,0
2023-02-22T03:14:12.264Z,0
2023-02-22T03:15:12.222Z,0
2023-02-22T03:16:12.477Z,0
2023-02-22T03:17:12.642Z,0
2023-02-22T03:18:12.455Z,0
2023-02-22T03:19:12.161Z,0
2023-02-22T03:20:12.175Z,0
2023-02-22T03:21:12.423Z,0
2023-02-22T03:22:12.126Z,0
2023-02-22T03:23:11.856Z,0
2023-02-22T03:24:12.132Z,0
2023-02-22T03:25:12.077Z,0
2023-02-22T03:26:12.319Z,0
2023-02-22T03:27:12.323Z,0
2023-02-22T03:28:12.346Z,0
2023-02-22T03:29:12.322Z,0
2023-02-22T03:30:12.529Z,0
2023-02-22T03:31:12.199Z,0
2023-02-22T03:32:11.935Z,0
2023-02-22T03:49:25.967Z,0
2023-02-22T03:50:25.340Z,0
2023-02-22T03:51:26.237Z,0
2023-02-22T03:52:25.921Z,0
2023-02-22T03:53:25.029Z,0
2023-02-22T03:54:25.530Z,0
2023-02-22T03:55:25.780Z,0
2023-02-22T03:56:25.757Z,0
2023-02-22T03:57:25.490Z,0
2023-02-22T03:58:25.467Z,0
2023-02-22T03:59:25.184Z,0
2023-02-22T04:00:25.483Z,0
2023-02-22T04:01:25.795Z,0
2023-02-22T04:02:25.692Z,0
2023-02-22T04:03:25.814Z,0
2023-02-22T04:04:25.250Z,0
2023-02-22T04:05:25.769Z,0
2023-02-22T04:06:25.613Z,0
2023-02-22T04:07:25.560Z,0
2023-02-22T04:08:25.556Z,0
2023-02-22T04:09:25.062Z,0
2023-02-22T04:10:25.018Z,0
2023-02-22T04:11:25.759Z,0
2023-02-22T04:12:25.232Z,0
2023-02-22T04:13:25.469Z,0
2023-02-22T04:14:29.479Z,0
2023-02-22T04:15:25.200Z,0
2023-02-22T04:16:25.300Z,0
2023-02-22T04:17:24.641Z,0
2023-02-22T04:18:25.402Z,0
2023-02-22T04:19:25.128Z,0
2023-02-22T04:20:25.475Z,0
2023-02-22T04:21:25.961Z,0
2023-02-22T04:22:25.369Z,0
2023-02-22T04:23:24.834Z,0
2023-02-22T04:24:24.795Z,0
2023-02-22T04:25:25.386Z,0
2023-02-22T04:26:24.791Z,0
2023-02-22T04:27:25.270Z,0
2023-02-22T04:28:24.998Z,0
2023-02-22T04:29:25.242Z,0
2023-02-22T04:30:25.187Z,0
2023-02-22T04:31:25.986Z,0
2023-02-22T04:32:25.132Z,0
2023-02-22T04:33:24.918Z,0
2023-02-22T04:34:25.154Z,0
2023-02-22T04:35:24.917Z,0
2023-02-22T04:36:25.144Z,0
2023-02-22T04:37:25.304Z,0
2023-02-22T04:38:24.587Z,0
2023-02-22T04:39:25.226Z,0
2023-02-22T04:40:25.105Z,0
2023-02-22T04:41:27.865Z,0
2023-02-22T04:42:24.777Z,0
2023-02-22T04:43:24.517Z,0
2023-02-22T04:44:24.514Z,0
2023-02-22T04:45:24.524Z,0
2023-02-22T04:46:25.164Z,0
2023-02-22T04:47:25.648Z,0
2023-02-22T04:48:25.381Z,0
2023-02-22T04:49:25.370Z,0
2023-02-22T04:50:25.402Z,0
2023-02-22T04:51:25.983Z,0
2023-02-22T04:52:25.544Z,0
2023-02-22T04:53:25.725Z,0
2023-02-22T04:54:25.377Z,0
2023-02-22T04:55:25.137Z,0
2023-02-22T04:56:25.590Z,0
2023-02-22T04:57:25.320Z,0
2023-02-22T04:58:25.279Z,0
2023-02-22T04:59:25.563Z,0
2023-02-22T05:00:24.998Z,0
2023-02-22T05:01:25.686Z,0
2023-02-22T05:02:25.608Z,0
2023-02-22T05:03:25.485Z,0
2023-02-22T05:04:25.695Z,0
2023-02-22T05:05:25.195Z,0
2023-02-22T05:06:25.172Z,0
2023-02-22T05:07:24.940Z,0
2023-02-22T05:08:25.136Z,0
2023-02-22T05:09:25.473Z,0
2023-02-22T05:10:24.597Z,0
2023-02-22T05:11:25.589Z,0
2023-02-22T05:12:25.116Z,0
2023-02-22T05:13:25.080Z,0
2023-02-22T05:14:25.340Z,0
2023-02-22T05:15:25.358Z,0
2023-02-22T05:16:25.368Z,0
2023-02-22T05:17:24.759Z,0
2023-02-22T05:18:25.014Z,0
2023-02-22T05:19:24.737Z,0
2023-02-22T05:20:26.783Z,0
2023-02-22T05:21:25.376Z,0
2023-02-22T05:22:24.940Z,0
2023-02-22T05:23:24.661Z,0
2023-02-22T05:24:24.928Z,0
2023-02-22T05:25:25.349Z,0
2023-02-22T05:26:24.919Z,0
2023-02-22T05:27:24.868Z,0
2023-02-22T05:28:24.851Z,0
2023-02-22T05:29:24.607Z,0
2023-02-22T05:30:24.785Z,0
2023-02-22T05:31:25.752Z,0
2023-02-22T05:32:24.775Z,0
2023-02-22T05:33:24.772Z,0
2023-02-22T05:34:24.779Z,0
2023-02-22T05:35:25.006Z,0
2023-02-22T05:36:24.742Z,0
2023-02-22T05:37:24.992Z,0
2023-02-22T05:38:24.761Z,0
2023-02-22T05:39:25.063Z,0
2023-02-22T05:40:24.678Z,0
2023-02-22T05:41:25.443Z,4
2023-02-22T05:42:24.643Z,4
2023-02-22T05:43:24.630Z,0
2023-02-22T05:44:24.628Z,4
2023-02-22T05:45:24.856Z,0
2023-02-22T05:46:24.449Z,4
2023-02-22T05:47:24.825Z,4
2023-02-22T05:48:27.324Z,8
2023-02-22T05:49:24.539Z,8
2023-02-22T05:50:24.576Z,8
2023-02-22T05:51:24.720Z,12
2023-02-22T05:52:24.256Z,12
2023-02-22T05:53:24.273Z,12
2023-02-22T05:54:24.756Z,20
2023-02-22T05:55:24.709Z,20
2023-02-22T05:56:24.445Z,24
2023-02-22T05:57:24.779Z,28
2023-02-22T05:58:24.423Z,32
2023-02-22T05:59:24.650Z,40
2023-02-22T06:00:24.159Z,44
2023-02-22T06:01:25.194Z,52
2023-02-22T06:02:24.447Z,60
2023-02-22T06:03:24.591Z,64
2023-02-22T06:04:24.344Z,72
2023-02-22T06:05:24.752Z,76
2023-02-22T06:06:26.741Z,84
2023-02-22T06:07:24.535Z,96
2023-02-22T06:08:24.546Z,112
2023-02-22T06:09:24.500Z,128
2023-02-22T06:10:23.731Z,144
2023-02-22T06:11:25.138Z,160
2023-02-22T06:12:24.208Z,176
2023-02-22T06:13:24.543Z,192
2023-02-22T06:14:24.452Z,212
2023-02-22T06:15:24.438Z,232
2023-02-22T06:16:24.785Z,256
2023-02-22T06:17:26.227Z,288
2023-02-22T06:18:24.821Z,320
2023-02-22T06:19:24.794Z,348
2023-02-22T06:20:25.082Z,380
2023-02-22T06:21:25.374Z,432
2023-02-22T06:22:25.015Z,464
2023-02-22T06:23:25.021Z,508
2023-02-22T06:24:24.968Z,544
2023-02-22T06:25:24.974Z,556
2023-02-22T06:26:24.948Z,572
2023-02-22T06:27:24.932Z,600
2023-02-22T06:28:24.669Z,624
2023-02-22T06:29:25.015Z,652
2023-02-22T06:30:24.827Z,692
2023-02-22T06:31:25.793Z,744
2023-02-22T06:32:24.583Z,808
2023-02-22T06:33:24.879Z,872
2023-02-22T06:34:24.839Z,932
2023-02-22T06:35:24.302Z,972
2023-02-22T06:36:24.580Z,964
2023-02-22T06:37:24.785Z,980
2023-02-22T06:38:24.864Z,1008
2023-02-22T06:39:24.754Z,1044
2023-02-22T06:40:24.279Z,1076
2023-02-22T06:41:25.108Z,1104
2023-02-22T06:42:25.068Z,1132
2023-02-22T06:43:24.194Z,1156
2023-02-22T06:44:24.168Z,1176
2023-02-22T06:45:24.937Z,1200
2023-02-22T06:46:23.894Z,1224
2023-02-22T06:47:24.650Z,1236
2023-02-22T06:48:24.618Z,1252
2023-02-22T06:49:24.625Z,1264
2023-02-22T06:50:24.624Z,1280
2023-02-22T06:51:25.043Z,1296
2023-02-22T06:52:24.566Z,1304
2023-02-22T06:53:23.798Z,1320
2023-02-22T06:54:24.029Z,1336
2023-02-22T06:55:24.305Z,1352
2023-02-22T06:56:24.254Z,1372
2023-02-22T06:57:24.241Z,1384
2023-02-22T06:58:24.508Z,1400
2023-02-22T06:59:24.467Z,1420
2023-02-22T07:00:24.447Z,1456
2023-02-22T07:01:25.481Z,1500
2023-02-22T07:02:24.164Z,1540
2023-02-22T07:03:24.323Z,1560
2023-02-22T07:04:24.155Z,1644
2023-02-22T07:05:24.402Z,1836
2023-02-22T07:06:23.854Z,1812
2023-02-22T07:07:24.354Z,1680
2023-02-22T07:08:24.335Z,1664
2023-02-22T07:09:24.326Z,1664
2023-02-22T07:10:24.052Z,1664
2023-02-22T07:11:24.542Z,1652
2023-02-22T07:12:24.020Z,1708
2023-02-22T07:13:24.019Z,1684
2023-02-22T07:14:23.746Z,1648
2023-02-22T07:15:24.217Z,1600
2023-02-22T07:16:24.194Z,1556
2023-02-22T07:17:24.293Z,1556
2023-02-22T07:18:23.679Z,1572
2023-02-22T07:19:24.183Z,1576
2023-02-22T07:20:24.146Z,1588
2023-02-22T07:21:24.278Z,1616
2023-02-22T07:22:24.125Z,1644
2023-02-22T07:23:23.611Z,1664
2023-02-22T07:24:23.837Z,1676
2023-02-22T07:25:24.073Z,1676
2023-02-22T07:26:24.084Z,1680
2023-02-22T07:27:24.051Z,1680
2023-02-22T07:28:23.786Z,1696
2023-02-22T07:29:23.765Z,1724
2023-02-22T07:30:23.734Z,1740
2023-02-22T07:31:24.378Z,1796
2023-02-22T07:32:24.477Z,1968
2023-02-22T07:33:24.560Z,2328
2023-02-22T07:34:23.932Z,2436
2023-02-22T07:35:23.665Z,2652
2023-02-22T07:36:23.919Z,2764
2023-02-22T07:37:23.646Z,2256
2023-02-22T07:38:23.903Z,2200
2023-02-22T07:39:23.684Z,2312
2023-02-22T07:40:23.343Z,2332
2023-02-22T07:41:24.313Z,2108
2023-02-22T07:42:23.820Z,2064
2023-02-22T07:43:23.561Z,2008
2023-02-22T07:44:23.542Z,2048
2023-02-22T07:45:23.525Z,2140
2023-02-22T07:46:23.255Z,2184
2023-02-22T07:47:23.769Z,2128
2023-02-22T07:48:24.621Z,2236
2023-02-22T07:49:23.810Z,2244
2023-02-22T07:50:23.703Z,2340
2023-02-22T07:51:23.705Z,2340
2023-02-22T07:52:23.669Z,2604
2023-02-22T07:53:23.170Z,2556
2023-02-22T07:54:23.407Z,2616
2023-02-22T07:55:23.389Z,2560
2023-02-22T07:56:23.378Z,2832
2023-02-22T07:57:23.336Z,3112
2023-02-22T07:58:23.357Z,3412
2023-02-22T07:59:23.051Z,3308
2023-02-22T08:00:23.295Z,3224
2023-02-22T08:01:24.465Z,3316
2023-02-22T08:02:23.442Z,3228
2023-02-22T08:03:23.547Z,2856
2023-02-22T08:04:23.011Z,3104
2023-02-22T08:05:23.580Z,2820
2023-02-22T08:06:23.524Z,2632
2023-02-22T08:07:23.205Z,2612
2023-02-22T08:08:26.021Z,2420
2023-02-22T08:09:23.170Z,2320
2023-02-22T08:10:23.165Z,2292
2023-02-22T08:11:24.256Z,2288
2023-02-22T08:12:23.121Z,2464
2023-02-22T08:13:23.417Z,2832
2023-02-22T08:14:23.348Z,2708
2023-02-22T08:15:22.858Z,3060
2023-02-22T08:16:23.098Z,2816
2023-02-22T08:17:23.348Z,2416
2023-02-22T08:18:23.320Z,2268
2023-02-22T08:19:23.293Z,2216
2023-02-22T08:20:23.284Z,2200
2023-02-22T08:21:24.133Z,2208
2023-02-22T08:22:25.449Z,2208
2023-02-22T08:23:22.997Z,2240
2023-02-22T08:24:23.225Z,2356
2023-02-22T08:25:22.963Z,2652
2023-02-22T08:26:22.944Z,2532
2023-02-22T08:27:22.959Z,2344
2023-02-22T08:28:22.660Z,2472
2023-02-22T08:29:22.969Z,2800
2023-02-22T08:30:23.361Z,2440
2023-02-22T08:31:24.362Z,2332
2023-02-22T08:32:24.001Z,2320
2023-02-22T08:33:23.574Z,2452
2023-02-22T08:34:22.862Z,2500
2023-02-22T08:35:22.848Z,2596
2023-02-22T08:36:23.043Z,2516
2023-02-22T08:37:23.134Z,2704
2023-02-22T08:38:23.022Z,2824
2023-02-22T08:39:22.748Z,3096
2023-02-22T08:40:22.984Z,3720
2023-02-22T08:41:23.674Z,3604
2023-02-22T08:42:22.977Z,4240
2023-02-22T08:43:23.042Z,3748
2023-02-22T08:44:22.702Z,3280
2023-02-22T08:45:22.963Z,3024
2023-02-22T08:46:22.950Z,3496
2023-02-22T08:47:22.948Z,3676
2023-02-22T08:48:22.947Z,3396
2023-02-22T08:49:22.632Z,3956
2023-02-22T08:50:22.353Z,3632
2023-02-22T08:51:23.449Z,4532
2023-02-22T08:52:22.631Z,5076
2023-02-22T08:53:22.943Z,5076
2023-02-22T08:54:22.572Z,5300
2023-02-22T08:55:22.274Z,5044
2023-02-22T08:56:22.514Z,4892
2023-02-22T08:57:24.950Z,5140
2023-02-22T08:58:22.243Z,5072
2023-02-22T08:59:22.222Z,4220
2023-02-22T09:00:22.883Z,3480
2023-02-22T09:01:38.659Z,3112
2023-02-22T09:02:22.430Z,3200
2023-02-22T09:03:23.129Z,3220
2023-02-22T09:04:22.706Z,3716
2023-02-22T09:05:22.693Z,4052
2023-02-22T09:06:22.793Z,3988
2023-02-22T09:07:21.877Z,3660
2023-02-22T09:08:22.633Z,3376
2023-02-22T09:09:22.736Z,3104
2023-02-22T09:10:22.401Z,2984
2023-02-22T09:11:22.731Z,2988
2023-02-22T09:12:22.330Z,2924
2023-02-22T09:13:22.559Z,2872
2023-02-22T09:14:22.543Z,2900
2023-02-22T09:15:22.587Z,2928
2023-02-22T09:16:22.529Z,2912
2023-02-22T09:17:22.272Z,2924
2023-02-22T09:18:22.531Z,3040
2023-02-22T09:19:22.221Z,3092
2023-02-22T09:20:22.577Z,3132
2023-02-22T09:21:23.612Z,3108
2023-02-22T09:22:21.976Z,3192
2023-02-22T09:23:24.027Z,3460
2023-02-22T09:24:21.949Z,3612
2023-02-22T09:25:24.695Z,4084
2023-02-22T09:26:21.932Z,4108
2023-02-22T09:27:22.130Z,4000
2023-02-22T09:28:22.402Z,4564
2023-02-22T09:29:22.099Z,4784
2023-02-22T09:30:22.616Z,4552
2023-02-22T09:31:23.894Z,4568
2023-02-22T09:32:22.530Z,4908
2023-02-22T09:33:22.248Z,5096
2023-02-22T09:34:22.043Z,5020
2023-02-22T09:35:22.034Z,4348
2023-02-22T09:36:23.640Z,4088
2023-02-22T09:37:22.270Z,3940
2023-02-22T09:38:22.324Z,3752
2023-02-22T09:39:22.192Z,3680
2023-02-22T09:40:22.231Z,3740
2023-02-22T09:41:23.188Z,3740
2023-02-22T09:42:22.204Z,3928
2023-02-22T09:43:21.933Z,3900
2023-02-22T09:44:22.489Z,3884
2023-02-22T09:45:22.180Z,3896
2023-02-22T09:46:23.502Z,4188
2023-02-22T09:47:22.099Z,4216
2023-02-22T09:48:29.012Z,4028
2023-02-22T09:49:21.891Z,4104
2023-02-22T09:50:22.132Z,3880
2023-02-22T09:51:21.738Z,3788
2023-02-22T09:52:21.834Z,3716
2023-02-22T09:53:21.887Z,3692
2023-02-22T09:54:21.578Z,4056
2023-02-22T09:55:22.074Z,4048
2023-02-22T09:56:23.407Z,3892
2023-02-22T09:57:22.289Z,3720
2023-02-22T09:58:21.794Z,3244
2023-02-22T09:59:21.254Z,3092
2023-02-22T10:00:21.757Z,3320
2023-02-22T10:01:21.743Z,3340
2023-02-22T10:02:21.725Z,3528
2023-02-22T10:03:23.887Z,3912
2023-02-22T10:04:21.701Z,4356
2023-02-22T10:05:22.121Z,4436
2023-02-22T10:06:22.047Z,4648
2023-02-22T10:07:21.804Z,4716
2023-02-22T10:08:21.718Z,4124
2023-02-22T10:09:21.928Z,4220
2023-02-22T10:10:21.640Z,4744
2023-02-22T10:11:21.655Z,5252
2023-02-22T10:12:21.882Z,5616
2023-02-22T10:13:22.018Z,5804
2023-02-22T10:14:21.351Z,5652
2023-02-22T10:15:21.876Z,5892
2023-02-22T10:16:22.659Z,6356
2023-02-22T10:17:21.837Z,6572
2023-02-22T10:18:22.822Z,6992
2023-02-22T10:19:21.536Z,7092
2023-02-22T10:20:21.859Z,6956
2023-02-22T10:21:21.020Z,6704
2023-02-22T10:22:21.794Z,6696
2023-02-22T10:23:21.512Z,6732
2023-02-22T10:24:21.506Z,6760
2023-02-22T10:25:21.526Z,6660
2023-02-22T10:26:22.880Z,6592
2023-02-22T10:27:21.226Z,6480
2023-02-22T10:28:21.385Z,6408
2023-02-22T10:29:21.860Z,6312
2023-02-22T10:30:33.927Z,6264
2023-02-22T10:31:22.319Z,6284
2023-02-22T10:32:22.081Z,6140
2023-02-22T10:33:21.163Z,6020
2023-02-22T10:34:21.641Z,6116
2023-02-22T10:35:21.639Z,6388
2023-02-22T10:36:22.168Z,6620
2023-02-22T10:37:21.793Z,6672
2023-02-22T10:38:20.894Z,6584
2023-02-22T10:39:21.524Z,6232
2023-02-22T10:40:21.415Z,5940
2023-02-22T10:41:23.428Z,5636
2023-02-22T10:42:21.569Z,4800
2023-02-22T10:43:21.288Z,4244
2023-02-22T10:44:21.558Z,4156
2023-02-22T10:45:21.793Z,4040
2023-02-22T10:46:22.622Z,3960
2023-02-22T10:47:26.683Z,4064
2023-02-22T10:48:21.511Z,4044
2023-02-22T10:49:21.240Z,3880
2023-02-22T10:50:21.481Z,3664
2023-02-22T10:51:21.224Z,3452
2023-02-22T10:52:20.982Z,3192
2023-02-22T10:53:21.479Z,3040
2023-02-22T10:54:21.217Z,3224
2023-02-22T10:55:22.878Z,3264
2023-02-22T10:56:22.433Z,3300
2023-02-22T10:57:20.914Z,3596
2023-02-22T10:58:21.406Z,3600
2023-02-22T10:59:20.884Z,3436
2023-02-22T11:00:21.151Z,3256
2023-02-22T11:01:22.635Z,3480
2023-02-22T11:02:20.866Z,3452
2023-02-22T11:03:21.154Z,3408
2023-02-22T11:04:20.948Z,3356
2023-02-22T11:05:21.640Z,3284
2023-02-22T11:06:21.822Z,3188
2023-02-22T11:07:21.319Z,3168
2023-02-22T11:08:21.320Z,3264
2023-02-22T11:09:21.340Z,3304
2023-02-22T11:10:21.031Z,3668
2023-02-22T11:11:21.577Z,4092
2023-02-22T11:12:21.048Z,3984
2023-02-22T11:13:21.051Z,3812
2023-02-22T11:14:20.990Z,3756
2023-02-22T11:15:21.301Z,3636
2023-02-22T11:16:21.041Z,3296
2023-02-22T11:17:21.480Z,3332
2023-02-22T11:18:20.691Z,3556
2023-02-22T11:19:20.956Z,3748
2023-02-22T11:20:21.006Z,3868
2023-02-22T11:21:21.964Z,4024
2023-02-22T11:22:21.021Z,4516
2023-02-22T11:23:20.685Z,4692
2023-02-22T11:24:20.856Z,4288
2023-02-22T11:25:20.872Z,4460
2023-02-22T11:26:21.128Z,4520
2023-02-22T11:27:20.856Z,3716
2023-02-22T11:28:20.861Z,3512
2023-02-22T11:29:20.847Z,3424
2023-02-22T11:30:21.330Z,3508
2023-02-22T11:31:22.116Z,3688
2023-02-22T11:32:20.927Z,3956
2023-02-22T11:33:21.255Z,4332
2023-02-22T11:34:21.048Z,4228
2023-02-22T11:35:22.296Z,4068
2023-02-22T11:36:20.771Z,3920
2023-02-22T11:37:21.039Z,3764
2023-02-22T11:38:21.193Z,3452
2023-02-22T11:39:20.872Z,3332
2023-02-22T11:40:21.030Z,3264
2023-02-22T11:41:22.164Z,3240
2023-02-22T11:42:20.815Z,3256
2023-02-22T11:43:20.776Z,3288
2023-02-22T11:44:20.957Z,3524
2023-02-22T11:45:20.761Z,3644
2023-02-22T11:46:20.964Z,3620
2023-02-22T11:47:20.653Z,3772
2023-02-22T11:48:20.655Z,3684
2023-02-22T11:49:21.276Z,3712
2023-02-22T11:50:20.872Z,3716
2023-02-22T11:51:22.825Z,3896
2023-02-22T11:52:20.898Z,4364
2023-02-22T11:53:20.856Z,4532
2023-02-22T11:54:20.592Z,4220
2023-02-22T11:55:26.705Z,3764
2023-02-22T11:56:37.933Z,3780
2023-02-22T11:57:20.844Z,3936
2023-02-22T11:58:21.145Z,3800
2023-02-22T11:59:20.804Z,3784
2023-02-22T12:00:21.017Z,3784
2023-02-22T12:01:20.278Z,3856
2023-02-22T12:02:20.511Z,3928
2023-02-22T12:03:20.686Z,4160
2023-02-22T12:04:21.067Z,4276
2023-02-22T12:05:21.147Z,5000
2023-02-22T12:06:21.265Z,5256
2023-02-22T12:07:20.485Z,5392
2023-02-22T12:08:27.016Z,5832
2023-02-22T12:09:20.462Z,5944
2023-02-22T12:10:20.442Z,5904
2023-02-22T12:11:20.160Z,5832
2023-02-22T12:12:20.673Z,5520
2023-02-22T12:13:20.414Z,5356
2023-02-22T12:14:20.145Z,5312
2023-02-22T12:15:20.424Z,5288
2023-02-22T12:16:21.620Z,5252
2023-02-22T12:17:20.638Z,5256
2023-02-22T12:18:20.615Z,5068
2023-02-22T12:19:20.138Z,4772
2023-02-22T12:20:20.654Z,4612
2023-02-22T12:21:20.733Z,4540
2023-02-22T12:22:20.644Z,4816
2023-02-22T12:23:20.603Z,5176
2023-02-22T12:24:20.600Z,5592
2023-02-22T12:25:20.546Z,6040
2023-02-22T12:26:20.977Z,6204
2023-02-22T12:27:20.761Z,6332
2023-02-22T12:28:31.934Z,6212
2023-02-22T12:29:20.070Z,6216
2023-02-22T12:30:20.934Z,6508
2023-02-22T12:31:21.694Z,6684
2023-02-22T12:32:21.102Z,6760
2023-02-22T12:33:20.511Z,6816
2023-02-22T12:34:20.652Z,6724
2023-02-22T12:35:20.001Z,6316
2023-02-22T12:36:20.458Z,5832
2023-02-22T12:37:20.564Z,5320
2023-02-22T12:38:20.427Z,5072
2023-02-22T12:39:20.423Z,5012
2023-02-22T12:40:20.419Z,5068
2023-02-22T12:41:21.236Z,4956
2023-02-22T12:42:20.153Z,4880
2023-02-22T12:43:20.128Z,4760
2023-02-22T12:44:20.418Z,4908
2023-02-22T12:45:19.879Z,5048
2023-02-22T12:46:20.492Z,5188
2023-02-22T12:47:20.649Z,5108
2023-02-22T12:48:20.359Z,5296
2023-02-22T12:49:20.347Z,5236
2023-02-22T12:50:23.152Z,5128
2023-02-22T12:51:20.887Z,5036
2023-02-22T12:52:29.069Z,4984
2023-02-22T12:53:20.607Z,4916
2023-02-22T12:54:20.067Z,4852
2023-02-22T12:55:20.544Z,4920
2023-02-22T12:56:20.550Z,4960
2023-02-22T12:57:20.555Z,5080
2023-02-22T12:58:20.297Z,5108
2023-02-22T12:59:20.522Z,5120
2023-02-22T13:00:20.006Z,5108
2023-02-22T13:01:21.806Z,5064
2023-02-22T13:02:20.518Z,5124
2023-02-22T13:03:19.974Z,5168
2023-02-22T13:04:28.194Z,5112
2023-02-22T13:05:20.841Z,5100
2023-02-22T13:06:20.226Z,5136
2023-02-22T13:07:20.462Z,5128
2023-02-22T13:08:20.269Z,5216
2023-02-22T13:09:20.194Z,5408
2023-02-22T13:10:20.157Z,5548
2023-02-22T13:11:21.217Z,5572
2023-02-22T13:12:20.137Z,5668
2023-02-22T13:13:20.269Z,5568
2023-02-22T13:14:20.428Z,5352
2023-02-22T13:15:20.402Z,5356
2023-02-22T13:16:20.337Z,5464
2023-02-22T13:17:20.096Z,5480
2023-02-22T13:18:20.463Z,5420
2023-02-22T13:19:20.336Z,5320
2023-02-22T13:20:20.074Z,5292
2023-02-22T13:21:20.915Z,5348
2023-02-22T13:22:20.316Z,5380
2023-02-22T13:23:20.327Z,5476
2023-02-22T13:24:20.185Z,5720
2023-02-22T13:25:20.328Z,5992
2023-02-22T13:26:20.063Z,6064
2023-02-22T13:27:20.022Z,5880
2023-02-22T13:28:20.469Z,5768
2023-02-22T13:29:19.991Z,5708
2023-02-22T13:30:19.993Z,5720
2023-02-22T13:31:21.089Z,5720
2023-02-22T13:32:20.664Z,5736
2023-02-22T13:33:19.725Z,5812
2023-02-22T13:34:19.475Z,5828
2023-02-22T13:35:20.192Z,5772
2023-02-22T13:36:21.452Z,5696
2023-02-22T13:37:20.226Z,5656
2023-02-22T13:38:19.930Z,5580
2023-02-22T13:39:20.169Z,5500
2023-02-22T13:40:19.981Z,5404
2023-02-22T13:41:20.945Z,5248
2023-02-22T13:42:20.129Z,5076
2023-02-22T13:43:19.464Z,4964
2023-02-22T13:44:19.604Z,4896
2023-02-22T13:45:19.612Z,4856
2023-02-22T13:46:21.168Z,4848
2023-02-22T13:47:19.833Z,4828
2023-02-22T13:48:19.861Z,4800
2023-02-22T13:49:19.570Z,4784
2023-02-22T13:50:20.058Z,4784
2023-02-22T13:51:19.563Z,4788
2023-02-22T13:52:19.803Z,4804
2023-02-22T13:53:20.126Z,4848
2023-02-22T13:54:19.534Z,4864
2023-02-22T13:55:20.021Z,4876
2023-02-22T13:56:21.121Z,4852
2023-02-22T13:57:19.787Z,4804
2023-02-22T13:58:20.004Z,4788
2023-02-22T13:59:19.724Z,4764
2023-02-22T14:00:19.865Z,4684
2023-02-22T14:01:19.930Z,4604
2023-02-22T14:02:19.696Z,4520
2023-02-22T14:03:20.025Z,4476
2023-02-22T14:04:19.951Z,4428
2023-02-22T14:05:20.195Z,4364
2023-02-22T14:06:20.347Z,4340
2023-02-22T14:07:19.661Z,4320
2023-02-22T14:08:19.755Z,4312
2023-02-22T14:09:19.393Z,4300
2023-02-22T14:10:19.883Z,4276